sensor_id;sensor_type;location;lat;lon;timestamp;temperature;humidity
47168;DHT22;32931;47.778;17.806;2023-09-18T00:00:49;22.00;97.30
47168;DHT22;32931;47.778;17.806;2023-09-18T00:03:16;22.10;97.40
47168;DHT22;32931;47.778;17.806;2023-09-18T00:05:45;22.10;97.40
47168;DHT22;32931;47.778;17.806;2023-09-18T00:08:11;22.10;97.50
47168;DHT22;32931;47.778;17.806;2023-09-18T00:10:37;22.10;97.60
47168;DHT22;32931;47.778;17.806;2023-09-18T00:13:04;22.10;97.50
47168;DHT22;32931;47.778;17.806;2023-09-18T00:15:30;22.10;97.60
47168;DHT22;32931;47.778;17.806;2023-09-18T00:17:57;22.00;97.60
47168;DHT22;32931;47.778;17.806;2023-09-18T00:20:23;22.00;97.60
47168;DHT22;32931;47.778;17.806;2023-09-18T00:22:55;22.00;97.60
47168;DHT22;32931;47.778;17.806;2023-09-18T00:25:22;22.00;97.70
47168;DHT22;32931;47.778;17.806;2023-09-18T00:27:49;22.00;97.70
47168;DHT22;32931;47.778;17.806;2023-09-18T00:30:15;22.00;97.70
47168;DHT22;32931;47.778;17.806;2023-09-18T00:32:41;22.00;97.80
47168;DHT22;32931;47.778;17.806;2023-09-18T00:35:07;22.00;97.80
47168;DHT22;32931;47.778;17.806;2023-09-18T00:37:34;22.00;97.80
47168;DHT22;32931;47.778;17.806;2023-09-18T00:40:01;22.00;97.90
47168;DHT22;32931;47.778;17.806;2023-09-18T00:42:27;22.00;97.90
47168;DHT22;32931;47.778;17.806;2023-09-18T00:44:53;22.00;98.00
47168;DHT22;32931;47.778;17.806;2023-09-18T00:47:19;21.90;98.00
47168;DHT22;32931;47.778;17.806;2023-09-18T00:49:48;22.00;98.00
47168;DHT22;32931;47.778;17.806;2023-09-18T00:52:15;21.90;98.00
47168;DHT22;32931;47.778;17.806;2023-09-18T00:54:42;21.90;98.00
47168;DHT22;32931;47.778;17.806;2023-09-18T00:57:09;21.90;98.10
47168;DHT22;32931;47.778;17.806;2023-09-18T00:59:37;21.90;98.20
47168;DHT22;32931;47.778;17.806;2023-09-18T01:02:03;21.80;98.20
47168;DHT22;32931;47.778;17.806;2023-09-18T01:04:30;21.80;98.30
47168;DHT22;32931;47.778;17.806;2023-09-18T01:06:59;21.80;98.30
47168;DHT22;32931;47.778;17.806;2023-09-18T01:09:33;21.80;98.30
47168;DHT22;32931;47.778;17.806;2023-09-18T01:14:40;21.80;98.40
47168;DHT22;32931;47.778;17.806;2023-09-18T01:17:10;21.80;98.50
47168;DHT22;32931;47.778;17.806;2023-09-18T01:19:46;21.80;98.50
47168;DHT22;32931;47.778;17.806;2023-09-18T01:22:15;21.70;98.60
47168;DHT22;32931;47.778;17.806;2023-09-18T01:24:44;21.70;98.50
47168;DHT22;32931;47.778;17.806;2023-09-18T01:27:12;21.70;98.60
47168;DHT22;32931;47.778;17.806;2023-09-18T01:29:40;21.70;98.60
47168;DHT22;32931;47.778;17.806;2023-09-18T01:32:06;21.70;98.70
47168;DHT22;32931;47.778;17.806;2023-09-18T01:34:35;21.60;98.70
47168;DHT22;32931;47.778;17.806;2023-09-18T01:37:09;21.70;98.70
47168;DHT22;32931;47.778;17.806;2023-09-18T01:39:36;21.70;98.70
47168;DHT22;32931;47.778;17.806;2023-09-18T01:42:04;21.60;98.80
47168;DHT22;32931;47.778;17.806;2023-09-18T01:44:34;21.60;98.80
47168;DHT22;32931;47.778;17.806;2023-09-18T01:47:03;21.60;98.90
47168;DHT22;32931;47.778;17.806;2023-09-18T01:49:36;21.60;98.90
47168;DHT22;32931;47.778;17.806;2023-09-18T01:52:04;21.60;98.90
47168;DHT22;32931;47.778;17.806;2023-09-18T01:54:32;21.60;99.00
47168;DHT22;32931;47.778;17.806;2023-09-18T01:56:58;21.60;99.00
47168;DHT22;32931;47.778;17.806;2023-09-18T01:59:25;21.60;99.00
47168;DHT22;32931;47.778;17.806;2023-09-18T02:01:52;21.60;99.10
47168;DHT22;32931;47.778;17.806;2023-09-18T02:04:20;21.60;99.10
47168;DHT22;32931;47.778;17.806;2023-09-18T02:06:47;21.60;99.20
47168;DHT22;32931;47.778;17.806;2023-09-18T02:09:13;21.60;99.20
47168;DHT22;32931;47.778;17.806;2023-09-18T02:11:42;21.60;99.20
47168;DHT22;32931;47.778;17.806;2023-09-18T02:14:09;21.60;99.30
47168;DHT22;32931;47.778;17.806;2023-09-18T02:16:37;21.60;99.30
47168;DHT22;32931;47.778;17.806;2023-09-18T02:19:04;21.60;99.30
47168;DHT22;32931;47.778;17.806;2023-09-18T02:21:30;21.60;99.30
47168;DHT22;32931;47.778;17.806;2023-09-18T02:23:57;21.60;99.40
47168;DHT22;32931;47.778;17.806;2023-09-18T02:26:24;21.60;99.40
47168;DHT22;32931;47.778;17.806;2023-09-18T02:28:54;21.60;99.40
47168;DHT22;32931;47.778;17.806;2023-09-18T02:31:21;21.60;99.50
47168;DHT22;32931;47.778;17.806;2023-09-18T02:33:47;21.50;99.40
47168;DHT22;32931;47.778;17.806;2023-09-18T02:36:14;21.50;99.50
47168;DHT22;32931;47.778;17.806;2023-09-18T02:38:40;21.50;99.50
47168;DHT22;32931;47.778;17.806;2023-09-18T02:41:06;21.50;99.50
47168;DHT22;32931;47.778;17.806;2023-09-18T02:43:32;21.50;99.50
47168;DHT22;32931;47.778;17.806;2023-09-18T02:45:58;21.50;99.60
47168;DHT22;32931;47.778;17.806;2023-09-18T02:48:25;21.50;99.60
47168;DHT22;32931;47.778;17.806;2023-09-18T02:50:51;21.50;99.70
47168;DHT22;32931;47.778;17.806;2023-09-18T02:53:22;21.50;99.60
47168;DHT22;32931;47.778;17.806;2023-09-18T02:55:50;21.50;99.70
47168;DHT22;32931;47.778;17.806;2023-09-18T02:58:17;21.50;99.80
47168;DHT22;32931;47.778;17.806;2023-09-18T03:00:49;21.50;99.70
47168;DHT22;32931;47.778;17.806;2023-09-18T03:03:16;21.50;99.70
47168;DHT22;32931;47.778;17.806;2023-09-18T03:05:44;21.50;99.80
47168;DHT22;32931;47.778;17.806;2023-09-18T03:08:11;21.50;99.70
47168;DHT22;32931;47.778;17.806;2023-09-18T03:10:40;21.50;99.70
47168;DHT22;32931;47.778;17.806;2023-09-18T03:13:08;21.40;99.70
47168;DHT22;32931;47.778;17.806;2023-09-18T03:15:35;21.40;99.70
47168;DHT22;32931;47.778;17.806;2023-09-18T03:18:02;21.40;99.80
47168;DHT22;32931;47.778;17.806;2023-09-18T03:20:30;21.40;99.80
47168;DHT22;32931;47.778;17.806;2023-09-18T03:22:59;21.40;99.80
47168;DHT22;32931;47.778;17.806;2023-09-18T03:25:26;21.40;99.80
47168;DHT22;32931;47.778;17.806;2023-09-18T03:27:53;21.30;99.90
47168;DHT22;32931;47.778;17.806;2023-09-18T03:30:20;21.30;99.90
47168;DHT22;32931;47.778;17.806;2023-09-18T03:32:47;21.30;99.90
47168;DHT22;32931;47.778;17.806;2023-09-18T03:35:14;21.30;99.90
47168;DHT22;32931;47.778;17.806;2023-09-18T03:37:45;21.20;99.90
47168;DHT22;32931;47.778;17.806;2023-09-18T03:40:12;21.20;99.90
47168;DHT22;32931;47.778;17.806;2023-09-18T03:42:38;21.20;99.90
47168;DHT22;32931;47.778;17.806;2023-09-18T03:45:08;21.20;99.90
47168;DHT22;32931;47.778;17.806;2023-09-18T03:47:35;21.10;99.90
47168;DHT22;32931;47.778;17.806;2023-09-18T03:50:08;21.20;99.90
47168;DHT22;32931;47.778;17.806;2023-09-18T03:52:35;21.10;99.90
47168;DHT22;32931;47.778;17.806;2023-09-18T03:55:01;21.10;99.90
47168;DHT22;32931;47.778;17.806;2023-09-18T03:57:28;21.10;99.90
47168;DHT22;32931;47.778;17.806;2023-09-18T03:59:54;21.10;99.90
47168;DHT22;32931;47.778;17.806;2023-09-18T04:02:24;21.10;99.90
47168;DHT22;32931;47.778;17.806;2023-09-18T04:04:50;21.10;99.90
47168;DHT22;32931;47.778;17.806;2023-09-18T04:07:16;21.10;99.90
47168;DHT22;32931;47.778;17.806;2023-09-18T04:09:43;21.10;99.90
47168;DHT22;32931;47.778;17.806;2023-09-18T04:12:09;21.00;99.90
47168;DHT22;32931;47.778;17.806;2023-09-18T04:14:36;21.00;99.90
47168;DHT22;32931;47.778;17.806;2023-09-18T04:17:02;21.00;99.90
47168;DHT22;32931;47.778;17.806;2023-09-18T04:19:29;21.00;99.90
47168;DHT22;32931;47.778;17.806;2023-09-18T04:21:55;21.00;99.90
47168;DHT22;32931;47.778;17.806;2023-09-18T04:24:22;20.90;99.90
47168;DHT22;32931;47.778;17.806;2023-09-18T04:26:49;20.90;99.90
47168;DHT22;32931;47.778;17.806;2023-09-18T04:29:17;20.90;99.90
47168;DHT22;32931;47.778;17.806;2023-09-18T04:31:43;20.90;99.90
47168;DHT22;32931;47.778;17.806;2023-09-18T04:34:10;20.90;99.90
47168;DHT22;32931;47.778;17.806;2023-09-18T04:36:36;20.90;99.90
47168;DHT22;32931;47.778;17.806;2023-09-18T04:39:04;20.90;99.90
47168;DHT22;32931;47.778;17.806;2023-09-18T04:41:31;20.90;99.90
47168;DHT22;32931;47.778;17.806;2023-09-18T04:43:57;20.80;99.90
47168;DHT22;32931;47.778;17.806;2023-09-18T04:46:23;20.80;99.90
47168;DHT22;32931;47.778;17.806;2023-09-18T04:48:51;20.80;99.90
47168;DHT22;32931;47.778;17.806;2023-09-18T04:51:17;20.90;99.90
47168;DHT22;32931;47.778;17.806;2023-09-18T04:53:43;20.80;99.90
47168;DHT22;32931;47.778;17.806;2023-09-18T04:56:09;20.90;99.90
47168;DHT22;32931;47.778;17.806;2023-09-18T04:58:38;20.80;99.90
47168;DHT22;32931;47.778;17.806;2023-09-18T05:01:05;20.90;99.90
47168;DHT22;32931;47.778;17.806;2023-09-18T05:03:35;20.90;99.90
47168;DHT22;32931;47.778;17.806;2023-09-18T05:06:01;20.90;99.90
47168;DHT22;32931;47.778;17.806;2023-09-18T05:08:28;20.90;99.90
47168;DHT22;32931;47.778;17.806;2023-09-18T05:10:55;20.90;99.90
47168;DHT22;32931;47.778;17.806;2023-09-18T05:13:21;20.90;99.90
47168;DHT22;32931;47.778;17.806;2023-09-18T05:15:47;20.90;99.90
47168;DHT22;32931;47.778;17.806;2023-09-18T05:18:13;20.90;99.90
47168;DHT22;32931;47.778;17.806;2023-09-18T05:20:40;20.90;99.90
47168;DHT22;32931;47.778;17.806;2023-09-18T05:23:06;20.90;99.90
47168;DHT22;32931;47.778;17.806;2023-09-18T05:25:34;20.90;99.90
47168;DHT22;32931;47.778;17.806;2023-09-18T05:28:03;21.00;99.90
47168;DHT22;32931;47.778;17.806;2023-09-18T05:30:35;21.00;99.90
47168;DHT22;32931;47.778;17.806;2023-09-18T05:33:05;21.00;99.90
47168;DHT22;32931;47.778;17.806;2023-09-18T05:38:05;21.00;99.90
47168;DHT22;32931;47.778;17.806;2023-09-18T05:40:31;21.00;99.90
47168;DHT22;32931;47.778;17.806;2023-09-18T05:42:58;21.00;99.90
47168;DHT22;32931;47.778;17.806;2023-09-18T05:45:24;21.10;99.90
47168;DHT22;32931;47.778;17.806;2023-09-18T05:47:52;21.00;99.90
47168;DHT22;32931;47.778;17.806;2023-09-18T05:50:32;21.10;99.90
47168;DHT22;32931;47.778;17.806;2023-09-18T05:52:59;21.10;99.90
47168;DHT22;32931;47.778;17.806;2023-09-18T05:55:27;21.10;99.90
47168;DHT22;32931;47.778;17.806;2023-09-18T05:57:54;21.20;99.90
47168;DHT22;32931;47.778;17.806;2023-09-18T06:00:20;21.20;99.90
47168;DHT22;32931;47.778;17.806;2023-09-18T06:02:47;21.30;99.90
47168;DHT22;32931;47.778;17.806;2023-09-18T06:05:14;21.30;99.90
47168;DHT22;32931;47.778;17.806;2023-09-18T06:07:41;21.30;99.90
47168;DHT22;32931;47.778;17.806;2023-09-18T06:10:08;21.30;99.90
47168;DHT22;32931;47.778;17.806;2023-09-18T06:12:34;21.40;99.90
47168;DHT22;32931;47.778;17.806;2023-09-18T06:15:00;21.40;99.90
47168;DHT22;32931;47.778;17.806;2023-09-18T06:17:26;21.40;99.90
47168;DHT22;32931;47.778;17.806;2023-09-18T06:19:52;21.50;99.90
47168;DHT22;32931;47.778;17.806;2023-09-18T06:22:19;21.50;99.90
47168;DHT22;32931;47.778;17.806;2023-09-18T06:24:45;21.60;99.90
47168;DHT22;32931;47.778;17.806;2023-09-18T06:27:11;21.60;99.90
47168;DHT22;32931;47.778;17.806;2023-09-18T06:29:38;21.70;99.90
47168;DHT22;32931;47.778;17.806;2023-09-18T06:32:05;21.70;99.90
47168;DHT22;32931;47.778;17.806;2023-09-18T06:34:32;21.80;99.90
47168;DHT22;32931;47.778;17.806;2023-09-18T06:36:58;21.80;99.90
47168;DHT22;32931;47.778;17.806;2023-09-18T06:39:24;21.90;99.90
47168;DHT22;32931;47.778;17.806;2023-09-18T06:41:51;21.90;99.90
47168;DHT22;32931;47.778;17.806;2023-09-18T06:44:18;22.00;99.90
47168;DHT22;32931;47.778;17.806;2023-09-18T06:46:44;22.00;99.90
47168;DHT22;32931;47.778;17.806;2023-09-18T06:49:10;22.00;99.90
47168;DHT22;32931;47.778;17.806;2023-09-18T06:51:36;22.10;99.90
47168;DHT22;32931;47.778;17.806;2023-09-18T06:54:02;22.10;99.90
47168;DHT22;32931;47.778;17.806;2023-09-18T06:56:28;22.10;99.90
47168;DHT22;32931;47.778;17.806;2023-09-18T06:58:55;22.20;99.90
47168;DHT22;32931;47.778;17.806;2023-09-18T07:01:22;22.30;99.90
47168;DHT22;32931;47.778;17.806;2023-09-18T07:03:50;22.30;99.90
47168;DHT22;32931;47.778;17.806;2023-09-18T07:06:17;22.30;99.90
47168;DHT22;32931;47.778;17.806;2023-09-18T07:08:46;22.30;99.90
47168;DHT22;32931;47.778;17.806;2023-09-18T07:11:16;22.40;99.90
47168;DHT22;32931;47.778;17.806;2023-09-18T07:13:43;22.40;99.90
47168;DHT22;32931;47.778;17.806;2023-09-18T07:16:12;22.50;99.90
47168;DHT22;32931;47.778;17.806;2023-09-18T07:18:39;22.60;99.90
47168;DHT22;32931;47.778;17.806;2023-09-18T07:21:05;22.60;99.90
47168;DHT22;32931;47.778;17.806;2023-09-18T07:23:31;22.70;99.90
47168;DHT22;32931;47.778;17.806;2023-09-18T07:25:57;22.70;99.90
47168;DHT22;32931;47.778;17.806;2023-09-18T07:28:26;22.80;99.90
47168;DHT22;32931;47.778;17.806;2023-09-18T07:30:52;22.90;99.80
47168;DHT22;32931;47.778;17.806;2023-09-18T07:33:19;22.90;99.60
47168;DHT22;32931;47.778;17.806;2023-09-18T07:35:50;23.00;99.70
47168;DHT22;32931;47.778;17.806;2023-09-18T07:38:18;23.00;99.60
47168;DHT22;32931;47.778;17.806;2023-09-18T07:40:46;23.10;99.60
47168;DHT22;32931;47.778;17.806;2023-09-18T07:43:13;23.10;99.50
47168;DHT22;32931;47.778;17.806;2023-09-18T07:45:40;23.20;99.50
47168;DHT22;32931;47.778;17.806;2023-09-18T07:48:07;23.20;99.20
47168;DHT22;32931;47.778;17.806;2023-09-18T07:50:34;23.30;99.20
47168;DHT22;32931;47.778;17.806;2023-09-18T07:53:01;23.40;99.30
47168;DHT22;32931;47.778;17.806;2023-09-18T07:55:28;23.40;99.20
47168;DHT22;32931;47.778;17.806;2023-09-18T07:57:55;23.50;99.00
47168;DHT22;32931;47.778;17.806;2023-09-18T08:00:22;23.60;99.00
47168;DHT22;32931;47.778;17.806;2023-09-18T08:02:49;23.60;98.80
47168;DHT22;32931;47.778;17.806;2023-09-18T08:05:16;23.70;98.80
47168;DHT22;32931;47.778;17.806;2023-09-18T08:07:43;23.80;98.70
47168;DHT22;32931;47.778;17.806;2023-09-18T08:10:11;23.80;98.40
47168;DHT22;32931;47.778;17.806;2023-09-18T08:12:38;23.90;98.30
47168;DHT22;32931;47.778;17.806;2023-09-18T08:15:05;23.90;98.10
47168;DHT22;32931;47.778;17.806;2023-09-18T08:17:32;24.00;98.00
47168;DHT22;32931;47.778;17.806;2023-09-18T08:19:58;24.00;98.00
47168;DHT22;32931;47.778;17.806;2023-09-18T08:22:24;24.10;97.90
47168;DHT22;32931;47.778;17.806;2023-09-18T08:24:52;24.10;97.80
47168;DHT22;32931;47.778;17.806;2023-09-18T08:27:19;24.20;97.90
47168;DHT22;32931;47.778;17.806;2023-09-18T08:29:46;24.30;97.70
47168;DHT22;32931;47.778;17.806;2023-09-18T08:32:12;24.30;97.60
47168;DHT22;32931;47.778;17.806;2023-09-18T08:34:39;24.40;97.60
47168;DHT22;32931;47.778;17.806;2023-09-18T08:37:05;24.40;97.50
47168;DHT22;32931;47.778;17.806;2023-09-18T08:39:31;24.50;97.40
47168;DHT22;32931;47.778;17.806;2023-09-18T08:42:02;24.50;97.20
47168;DHT22;32931;47.778;17.806;2023-09-18T08:44:29;24.60;97.00
47168;DHT22;32931;47.778;17.806;2023-09-18T08:46:57;24.70;97.00
47168;DHT22;32931;47.778;17.806;2023-09-18T08:49:24;24.70;96.80
47168;DHT22;32931;47.778;17.806;2023-09-18T08:51:51;24.70;96.80
47168;DHT22;32931;47.778;17.806;2023-09-18T08:54:19;24.80;96.70
47168;DHT22;32931;47.778;17.806;2023-09-18T08:56:46;24.80;96.70
47168;DHT22;32931;47.778;17.806;2023-09-18T08:59:12;24.90;96.70
47168;DHT22;32931;47.778;17.806;2023-09-18T09:01:40;25.00;96.80
47168;DHT22;32931;47.778;17.806;2023-09-18T09:04:06;25.10;96.60
47168;DHT22;32931;47.778;17.806;2023-09-18T09:06:32;25.10;96.40
47168;DHT22;32931;47.778;17.806;2023-09-18T09:08:58;25.20;96.40
47168;DHT22;32931;47.778;17.806;2023-09-18T09:11:25;25.30;96.30
47168;DHT22;32931;47.778;17.806;2023-09-18T09:14:13;25.40;96.40
47168;DHT22;32931;47.778;17.806;2023-09-18T09:16:49;25.40;96.40
47168;DHT22;32931;47.778;17.806;2023-09-18T09:19:17;25.50;96.30
47168;DHT22;32931;47.778;17.806;2023-09-18T09:21:44;25.60;96.00
47168;DHT22;32931;47.778;17.806;2023-09-18T09:24:11;25.60;95.70
47168;DHT22;32931;47.778;17.806;2023-09-18T09:26:41;25.70;95.40
47168;DHT22;32931;47.778;17.806;2023-09-18T09:29:15;25.70;95.20
47168;DHT22;32931;47.778;17.806;2023-09-18T09:31:44;25.80;95.40
47168;DHT22;32931;47.778;17.806;2023-09-18T09:34:25;25.80;94.90
47168;DHT22;32931;47.778;17.806;2023-09-18T09:36:56;25.80;94.90
47168;DHT22;32931;47.778;17.806;2023-09-18T09:39:23;25.90;94.60
47168;DHT22;32931;47.778;17.806;2023-09-18T09:41:52;25.90;94.50
47168;DHT22;32931;47.778;17.806;2023-09-18T09:44:19;25.90;94.40
47168;DHT22;32931;47.778;17.806;2023-09-18T09:46:50;26.00;94.40
47168;DHT22;32931;47.778;17.806;2023-09-18T09:49:17;26.10;94.60
47168;DHT22;32931;47.778;17.806;2023-09-18T09:51:46;26.10;94.20
47168;DHT22;32931;47.778;17.806;2023-09-18T09:54:12;26.20;94.00
47168;DHT22;32931;47.778;17.806;2023-09-18T09:56:47;26.30;94.00
47168;DHT22;32931;47.778;17.806;2023-09-18T09:59:17;26.30;93.90
47168;DHT22;32931;47.778;17.806;2023-09-18T10:01:48;26.40;94.10
47168;DHT22;32931;47.778;17.806;2023-09-18T10:04:18;26.50;93.90
47168;DHT22;32931;47.778;17.806;2023-09-18T10:06:55;26.50;93.60
47168;DHT22;32931;47.778;17.806;2023-09-18T10:09:23;26.60;93.80
47168;DHT22;32931;47.778;17.806;2023-09-18T10:11:54;26.60;93.20
47168;DHT22;32931;47.778;17.806;2023-09-18T10:16:56;26.70;93.20
47168;DHT22;32931;47.778;17.806;2023-09-18T10:25:04;26.80;92.80
47168;DHT22;32931;47.778;17.806;2023-09-18T10:27:37;26.90;93.20
47168;DHT22;32931;47.778;17.806;2023-09-18T10:30:06;26.90;92.90
47168;DHT22;32931;47.778;17.806;2023-09-18T10:32:44;26.90;92.90
47168;DHT22;32931;47.778;17.806;2023-09-18T10:35:11;27.00;93.20
47168;DHT22;32931;47.778;17.806;2023-09-18T10:37:38;27.10;93.00
47168;DHT22;32931;47.778;17.806;2023-09-18T10:40:08;27.10;92.80
47168;DHT22;32931;47.778;17.806;2023-09-18T10:42:39;27.20;93.00
47168;DHT22;32931;47.778;17.806;2023-09-18T10:45:07;27.20;93.00
47168;DHT22;32931;47.778;17.806;2023-09-18T10:47:39;27.30;92.70
47168;DHT22;32931;47.778;17.806;2023-09-18T10:50:06;27.30;92.60
47168;DHT22;32931;47.778;17.806;2023-09-18T10:52:38;27.30;92.50
47168;DHT22;32931;47.778;17.806;2023-09-18T10:55:12;27.40;92.60
47168;DHT22;32931;47.778;17.806;2023-09-18T10:57:50;27.40;92.50
47168;DHT22;32931;47.778;17.806;2023-09-18T11:00:17;27.40;92.30
47168;DHT22;32931;47.778;17.806;2023-09-18T11:03:15;27.40;92.10
47168;DHT22;32931;47.778;17.806;2023-09-18T11:05:47;27.50;92.70
47168;DHT22;32931;47.778;17.806;2023-09-18T11:13:40;27.60;92.40
47168;DHT22;32931;47.778;17.806;2023-09-18T11:16:17;27.60;92.10
47168;DHT22;32931;47.778;17.806;2023-09-18T11:18:50;27.60;92.40
47168;DHT22;32931;47.778;17.806;2023-09-18T11:21:23;27.60;92.40
47168;DHT22;32931;47.778;17.806;2023-09-18T11:24:07;27.50;91.90
47168;DHT22;32931;47.778;17.806;2023-09-18T11:26:40;27.50;92.30
47168;DHT22;32931;47.778;17.806;2023-09-18T11:29:09;27.50;92.00
47168;DHT22;32931;47.778;17.806;2023-09-18T11:34:24;27.50;92.70
47168;DHT22;32931;47.778;17.806;2023-09-18T11:36:52;27.50;92.10
47168;DHT22;32931;47.778;17.806;2023-09-18T11:39:37;27.60;91.90
47168;DHT22;32931;47.778;17.806;2023-09-18T11:42:28;27.60;91.90
47168;DHT22;32931;47.778;17.806;2023-09-18T11:44:54;27.60;92.00
47168;DHT22;32931;47.778;17.806;2023-09-18T11:47:25;27.50;91.90
47168;DHT22;32931;47.778;17.806;2023-09-18T11:49:56;27.60;91.80
47168;DHT22;32931;47.778;17.806;2023-09-18T11:52:26;27.60;91.80
47168;DHT22;32931;47.778;17.806;2023-09-18T11:54:53;27.50;91.70
47168;DHT22;32931;47.778;17.806;2023-09-18T11:57:21;27.60;91.80
47168;DHT22;32931;47.778;17.806;2023-09-18T11:59:47;27.60;91.60
47168;DHT22;32931;47.778;17.806;2023-09-18T12:04:56;27.60;91.40
47168;DHT22;32931;47.778;17.806;2023-09-18T12:07:23;27.60;91.40
47168;DHT22;32931;47.778;17.806;2023-09-18T12:09:50;27.50;91.10
47168;DHT22;32931;47.778;17.806;2023-09-18T12:12:17;27.50;91.30
47168;DHT22;32931;47.778;17.806;2023-09-18T12:14:43;27.50;91.20
47168;DHT22;32931;47.778;17.806;2023-09-18T12:17:17;27.50;91.10
47168;DHT22;32931;47.778;17.806;2023-09-18T12:19:51;27.50;91.90
47168;DHT22;32931;47.778;17.806;2023-09-18T12:22:26;27.50;91.50
47168;DHT22;32931;47.778;17.806;2023-09-18T12:24:53;27.50;91.00
47168;DHT22;32931;47.778;17.806;2023-09-18T12:27:19;27.50;90.60
47168;DHT22;32931;47.778;17.806;2023-09-18T12:29:46;27.60;90.30
47168;DHT22;32931;47.778;17.806;2023-09-18T12:32:13;27.60;90.20
47168;DHT22;32931;47.778;17.806;2023-09-18T12:34:43;27.70;90.30
47168;DHT22;32931;47.778;17.806;2023-09-18T12:37:09;27.70;90.60
47168;DHT22;32931;47.778;17.806;2023-09-18T12:39:38;27.70;90.30
47168;DHT22;32931;47.778;17.806;2023-09-18T12:42:04;27.70;90.40
47168;DHT22;32931;47.778;17.806;2023-09-18T12:44:31;27.80;90.10
47168;DHT22;32931;47.778;17.806;2023-09-18T12:46:57;27.80;90.00
47168;DHT22;32931;47.778;17.806;2023-09-18T12:49:23;27.90;90.00
47168;DHT22;32931;47.778;17.806;2023-09-18T12:51:58;27.90;89.60
47168;DHT22;32931;47.778;17.806;2023-09-18T12:54:43;27.90;89.80
47168;DHT22;32931;47.778;17.806;2023-09-18T12:57:20;27.90;90.00
47168;DHT22;32931;47.778;17.806;2023-09-18T12:59:46;27.90;89.00
47168;DHT22;32931;47.778;17.806;2023-09-18T13:02:17;27.90;89.30
47168;DHT22;32931;47.778;17.806;2023-09-18T13:04:56;28.00;89.20
47168;DHT22;32931;47.778;17.806;2023-09-18T13:07:23;28.00;91.00
47168;DHT22;32931;47.778;17.806;2023-09-18T13:09:59;28.00;88.90
47168;DHT22;32931;47.778;17.806;2023-09-18T13:12:39;28.00;89.90
47168;DHT22;32931;47.778;17.806;2023-09-18T13:15:06;28.10;90.00
47168;DHT22;32931;47.778;17.806;2023-09-18T13:17:45;28.10;89.00
47168;DHT22;32931;47.778;17.806;2023-09-18T13:20:13;28.10;89.90
47168;DHT22;32931;47.778;17.806;2023-09-18T13:22:42;28.10;88.70
47168;DHT22;32931;47.778;17.806;2023-09-18T13:25:10;28.10;88.30
47168;DHT22;32931;47.778;17.806;2023-09-18T13:27:38;28.10;87.70
47168;DHT22;32931;47.778;17.806;2023-09-18T13:30:08;28.10;87.50
47168;DHT22;32931;47.778;17.806;2023-09-18T13:32:36;28.10;87.40
47168;DHT22;32931;47.778;17.806;2023-09-18T13:35:03;28.10;87.60
47168;DHT22;32931;47.778;17.806;2023-09-18T13:37:33;28.10;88.00
47168;DHT22;32931;47.778;17.806;2023-09-18T13:40:00;28.10;87.50
47168;DHT22;32931;47.778;17.806;2023-09-18T13:42:32;28.10;87.40
47168;DHT22;32931;47.778;17.806;2023-09-18T13:44:58;28.10;87.80
47168;DHT22;32931;47.778;17.806;2023-09-18T13:47:28;28.20;87.30
47168;DHT22;32931;47.778;17.806;2023-09-18T13:49:55;28.20;87.10
47168;DHT22;32931;47.778;17.806;2023-09-18T13:52:32;28.10;87.10
47168;DHT22;32931;47.778;17.806;2023-09-18T13:54:59;28.20;88.40
47168;DHT22;32931;47.778;17.806;2023-09-18T13:57:26;28.10;86.80
47168;DHT22;32931;47.778;17.806;2023-09-18T13:59:52;28.10;87.20
47168;DHT22;32931;47.778;17.806;2023-09-18T14:02:19;28.10;87.70
47168;DHT22;32931;47.778;17.806;2023-09-18T14:04:45;28.10;87.60
47168;DHT22;32931;47.778;17.806;2023-09-18T14:07:11;28.10;87.40
47168;DHT22;32931;47.778;17.806;2023-09-18T14:09:38;28.10;86.90
47168;DHT22;32931;47.778;17.806;2023-09-18T14:12:05;28.10;86.60
47168;DHT22;32931;47.778;17.806;2023-09-18T14:14:34;28.10;86.30
47168;DHT22;32931;47.778;17.806;2023-09-18T14:17:02;28.00;86.30
47168;DHT22;32931;47.778;17.806;2023-09-18T14:19:30;28.00;86.20
47168;DHT22;32931;47.778;17.806;2023-09-18T14:21:56;28.00;86.20
47168;DHT22;32931;47.778;17.806;2023-09-18T14:24:22;28.00;86.20
47168;DHT22;32931;47.778;17.806;2023-09-18T14:26:52;28.10;86.30
47168;DHT22;32931;47.778;17.806;2023-09-18T14:29:18;28.10;86.60
47168;DHT22;32931;47.778;17.806;2023-09-18T14:31:44;28.10;87.20
47168;DHT22;32931;47.778;17.806;2023-09-18T14:34:10;28.20;87.30
47168;DHT22;32931;47.778;17.806;2023-09-18T14:36:37;28.20;87.20
47168;DHT22;32931;47.778;17.806;2023-09-18T14:39:05;28.30;86.60
47168;DHT22;32931;47.778;17.806;2023-09-18T14:41:38;28.20;86.40
47168;DHT22;32931;47.778;17.806;2023-09-18T14:44:05;28.20;86.20
47168;DHT22;32931;47.778;17.806;2023-09-18T14:46:32;28.10;86.20
47168;DHT22;32931;47.778;17.806;2023-09-18T14:49:01;28.10;86.10
47168;DHT22;32931;47.778;17.806;2023-09-18T14:51:27;28.10;86.50
47168;DHT22;32931;47.778;17.806;2023-09-18T14:53:57;28.00;86.40
47168;DHT22;32931;47.778;17.806;2023-09-18T14:56:23;28.00;86.70
47168;DHT22;32931;47.778;17.806;2023-09-18T14:58:50;28.00;86.60
47168;DHT22;32931;47.778;17.806;2023-09-18T15:01:21;28.00;86.50
47168;DHT22;32931;47.778;17.806;2023-09-18T15:03:47;28.10;87.10
47168;DHT22;32931;47.778;17.806;2023-09-18T15:06:17;28.00;86.70
47168;DHT22;32931;47.778;17.806;2023-09-18T15:08:44;28.10;86.70
47168;DHT22;32931;47.778;17.806;2023-09-18T15:11:10;28.00;86.60
47168;DHT22;32931;47.778;17.806;2023-09-18T15:13:38;28.00;86.60
47168;DHT22;32931;47.778;17.806;2023-09-18T15:16:05;28.00;86.90
47168;DHT22;32931;47.778;17.806;2023-09-18T15:18:32;28.00;87.00
47168;DHT22;32931;47.778;17.806;2023-09-18T15:20:58;28.00;87.30
47168;DHT22;32931;47.778;17.806;2023-09-18T15:23:24;28.00;87.20
47168;DHT22;32931;47.778;17.806;2023-09-18T15:25:51;28.00;87.40
47168;DHT22;32931;47.778;17.806;2023-09-18T15:28:20;28.00;87.50
47168;DHT22;32931;47.778;17.806;2023-09-18T15:30:47;28.00;87.40
47168;DHT22;32931;47.778;17.806;2023-09-18T15:33:13;27.90;87.20
47168;DHT22;32931;47.778;17.806;2023-09-18T15:35:44;27.90;88.00
47168;DHT22;32931;47.778;17.806;2023-09-18T15:38:10;27.90;87.80
47168;DHT22;32931;47.778;17.806;2023-09-18T15:40:37;27.90;87.40
47168;DHT22;32931;47.778;17.806;2023-09-18T15:43:03;28.00;87.60
47168;DHT22;32931;47.778;17.806;2023-09-18T15:45:31;28.00;87.20